createdAt,value
2019-04-06T00:02:10.012Z,77.38
2019-04-06T00:04:37.237Z,76.42
2019-04-06T00:07:04.531Z,76.39
2019-04-06T00:09:31.741Z,74.71
2019-04-06T00:11:58.999Z,75.42
2019-04-06T00:14:26.254Z,76.34
2019-04-06T00:16:53.511Z,76.12
2019-04-06T00:19:20.783Z,75.11
2019-04-06T00:21:48.065Z,75.67
2019-04-06T00:24:15.289Z,75.58
2019-04-06T00:26:42.597Z,75.89
2019-04-06T00:29:09.807Z,76.71
2019-04-06T00:32:08.631Z,76.40
2019-04-06T00:34:36.049Z,76.10
2019-04-06T00:37:03.271Z,76.57
2019-04-06T00:39:30.548Z,75.81
2019-04-06T00:41:57.783Z,75.20
2019-04-06T00:44:24.997Z,75.19
2019-04-06T00:46:52.320Z,75.29
2019-04-06T00:49:19.677Z,75.75
2019-04-06T00:51:46.877Z,75.40
2019-04-06T00:54:14.118Z,75.36
2019-04-06T00:56:41.359Z,75.18
2019-04-06T00:59:08.599Z,74.91
2019-04-06T01:01:35.822Z,74.70
2019-04-06T01:04:03.026Z,74.79
2019-04-06T01:06:30.282Z,76.22
2019-04-06T01:08:57.502Z,77.11
2019-04-06T01:11:24.718Z,77.00
2019-04-06T01:13:51.996Z,78.33
2019-04-06T01:16:19.263Z,75.01
2019-04-06T01:18:46.441Z,74.38
2019-04-06T01:21:13.703Z,73.71
2019-04-06T01:23:40.957Z,76.97
2019-04-06T01:26:08.186Z,75.37
2019-04-06T01:28:35.497Z,75.78
2019-04-06T01:31:02.727Z,75.64
2019-04-06T01:33:29.942Z,75.82
2019-04-06T01:35:57.218Z,74.86
2019-04-06T01:38:24.477Z,75.49
2019-04-06T01:40:51.695Z,74.74
2019-04-06T01:43:19.010Z,74.85
2019-04-06T01:45:46.370Z,75.14
2019-04-06T01:48:13.585Z,74.24
2019-04-06T01:50:40.877Z,75.30
2019-04-06T01:53:08.245Z,75.46
2019-04-06T01:55:35.684Z,75.01
2019-04-06T01:58:02.931Z,74.61
2019-04-06T02:00:30.156Z,74.62
2019-04-06T02:02:57.457Z,74.93
2019-04-06T02:05:24.829Z,74.80
2019-04-06T02:07:52.053Z,75.04
2019-04-06T02:10:19.823Z,74.91
2019-04-06T02:12:47.017Z,74.72
2019-04-06T02:15:14.357Z,75.43
2019-04-06T02:17:41.617Z,75.15
2019-04-06T02:20:08.957Z,75.52
2019-04-06T02:22:36.304Z,75.30
2019-04-06T02:25:04.319Z,76.32
2019-04-06T02:27:31.637Z,76.06
2019-04-06T02:30:22.393Z,75.60
2019-04-06T02:33:07.580Z,75.49
2019-04-06T02:36:09.606Z,75.46
2019-04-06T02:39:11.771Z,74.56
2019-04-06T02:41:56.667Z,75.94
2019-04-06T02:44:23.891Z,77.00
2019-04-06T02:46:51.140Z,74.74
2019-04-06T02:49:18.385Z,74.92
2019-04-06T02:51:45.586Z,75.20
2019-04-06T02:54:13.088Z,74.25
2019-04-06T02:56:46.258Z,74.84
2019-04-06T02:59:09.557Z,74.19
2019-04-06T03:01:36.821Z,73.91
2019-04-06T03:04:04.087Z,75.32
2019-04-06T03:06:31.461Z,75.13
2019-04-06T03:08:58.783Z,75.50
2019-04-06T03:11:26.018Z,76.37
2019-04-06T03:13:53.542Z,77.13
2019-04-06T03:16:20.826Z,77.06
2019-04-06T03:18:48.043Z,76.82
2019-04-06T03:21:15.281Z,76.84
2019-04-06T03:23:50.810Z,76.19
2019-04-06T03:26:11.700Z,75.58
2019-04-06T03:28:38.986Z,75.94
2019-04-06T03:31:06.240Z,76.29
2019-04-06T03:33:33.442Z,75.93
2019-04-06T03:36:01.051Z,76.08
2019-04-06T03:38:28.771Z,75.12
2019-04-06T03:40:56.050Z,75.08
2019-04-06T03:43:23.286Z,75.52
2019-04-06T03:45:50.534Z,74.79
2019-04-06T03:48:17.799Z,74.94
2019-04-06T03:50:45.045Z,75.58
2019-04-06T03:53:12.665Z,75.84
2019-04-06T03:55:39.969Z,76.04
2019-04-06T03:58:07.583Z,76.70
2019-04-06T04:00:34.831Z,77.07
2019-04-06T04:03:02.069Z,76.01
2019-04-06T04:05:29.497Z,76.49
2019-04-06T04:07:56.726Z,76.65
2019-04-06T04:10:35.002Z,76.48
2019-04-06T04:13:02.497Z,77.29
2019-04-06T04:15:29.760Z,76.42
2019-04-06T04:17:57.186Z,76.79
2019-04-06T04:20:26.581Z,76.71
2019-04-06T04:22:53.878Z,77.08
2019-04-06T04:25:21.352Z,76.84
2019-04-06T04:27:48.668Z,77.55
2019-04-06T04:30:30.748Z,77.16
2019-04-06T04:32:45.050Z,76.04
2019-04-06T04:35:12.261Z,76.56
2019-04-06T04:37:39.583Z,76.61
2019-04-06T04:40:06.926Z,76.83
2019-04-06T04:42:34.378Z,77.14
2019-04-06T04:45:01.586Z,76.07
2019-04-06T04:47:28.826Z,77.42
2019-04-06T04:49:56.132Z,78.25
2019-04-06T04:52:23.382Z,77.87
2019-04-06T04:54:50.631Z,77.61
2019-04-06T04:57:18.134Z,77.65
2019-04-06T04:59:45.577Z,76.33
2019-04-06T05:02:12.819Z,74.80
2019-04-06T05:04:40.077Z,76.70
2019-04-06T05:07:07.357Z,76.94
2019-04-06T05:09:35.000Z,77.79
2019-04-06T05:12:02.238Z,77.40
2019-04-06T05:14:55.743Z,76.44
2019-04-06T05:17:23.025Z,77.41
2019-04-06T05:19:50.302Z,75.75
2019-04-06T05:22:17.542Z,78.09
2019-04-06T05:24:44.797Z,76.59
2019-04-06T05:27:12.042Z,76.61
2019-04-06T05:29:39.317Z,77.71
2019-04-06T05:32:06.543Z,77.35
2019-04-06T05:34:34.737Z,78.67
2019-04-06T05:37:01.977Z,79.80
2019-04-06T05:39:29.237Z,79.78
2019-04-06T05:41:56.476Z,80.27
2019-04-06T05:44:23.888Z,79.60
2019-04-06T05:46:51.248Z,80.80
2019-04-06T05:49:18.477Z,80.20
2019-04-06T05:51:46.154Z,81.19
2019-04-06T05:54:13.422Z,82.99
2019-04-06T05:56:40.762Z,82.42
2019-04-06T05:59:10.046Z,81.55
2019-04-06T06:01:40.283Z,81.85
2019-04-06T06:04:06.472Z,81.95
2019-04-06T06:06:34.802Z,81.69
2019-04-06T06:09:02.075Z,80.58
2019-04-06T06:11:29.418Z,81.77
2019-04-06T06:13:56.790Z,81.50
2019-04-06T06:16:24.162Z,81.29
2019-04-06T06:18:51.389Z,81.30
2019-04-06T06:21:18.820Z,81.55
2019-04-06T06:23:46.146Z,81.97
2019-04-06T06:26:13.596Z,81.32
2019-04-06T06:28:40.844Z,80.18
2019-04-06T06:31:08.183Z,81.16
2019-04-06T06:33:35.606Z,79.73
2019-04-06T06:36:03.041Z,80.13
2019-04-06T06:38:30.421Z,78.56
2019-04-06T06:40:57.719Z,78.51
2019-04-06T06:43:24.945Z,80.93
2019-04-06T06:45:52.331Z,81.38
2019-04-06T06:48:19.638Z,79.86
2019-04-06T06:50:49.816Z,78.66
2019-04-06T06:53:17.057Z,78.70
2019-04-06T06:55:44.396Z,81.53
2019-04-06T06:58:11.678Z,81.05
2019-04-06T07:00:38.931Z,80.10
2019-04-06T07:03:06.166Z,81.76
2019-04-06T07:05:33.436Z,81.25
2019-04-06T07:08:00.801Z,80.54
2019-04-06T07:10:27.975Z,80.17
2019-04-06T07:12:55.348Z,79.60
2019-04-06T07:15:22.808Z,82.15
2019-04-06T07:17:51.802Z,81.48
2019-04-06T07:20:19.126Z,79.32
2019-04-06T07:22:46.596Z,78.86
2019-04-06T07:25:13.984Z,77.71
2019-04-06T07:27:43.846Z,78.32
2019-04-06T07:30:12.110Z,77.26
2019-04-06T07:32:39.403Z,77.34
2019-04-06T07:35:06.762Z,77.21
2019-04-06T07:37:34.162Z,77.59
2019-04-06T07:40:01.546Z,76.33
2019-04-06T07:42:28.731Z,75.88
2019-04-06T07:44:55.978Z,76.79
2019-04-06T07:47:23.219Z,75.62
2019-04-06T07:49:50.394Z,74.20
2019-04-06T07:52:17.657Z,75.01
2019-04-06T07:54:44.889Z,75.50
2019-04-06T07:57:12.140Z,73.53
2019-04-06T07:59:39.441Z,74.32
2019-04-06T08:02:06.690Z,73.78
2019-04-06T08:04:33.924Z,72.82
2019-04-06T08:07:01.199Z,73.18
2019-04-06T08:09:28.498Z,73.45
2019-04-06T08:11:56.076Z,72.83
2019-04-06T08:14:23.366Z,71.88
2019-04-06T08:16:50.846Z,71.49
2019-04-06T08:19:18.678Z,71.90
2019-04-06T08:21:46.010Z,71.08
2019-04-06T08:24:13.273Z,70.96
2019-04-06T08:26:40.606Z,70.85
2019-04-06T08:29:07.879Z,69.11
2019-04-06T08:31:35.122Z,69.48
2019-04-06T08:34:02.508Z,67.99
2019-04-06T08:36:29.827Z,68.41
2019-04-06T08:38:57.088Z,67.47
2019-04-06T08:41:24.378Z,66.85
2019-04-06T08:43:51.605Z,66.23
2019-04-06T08:46:18.827Z,66.89
2019-04-06T08:48:46.116Z,66.30
2019-04-06T08:51:13.353Z,65.79
2019-04-06T08:53:40.562Z,62.83
2019-04-06T08:56:07.867Z,61.94
2019-04-06T08:58:35.085Z,64.83
2019-04-06T09:01:02.410Z,62.57
2019-04-06T09:03:29.747Z,62.92
2019-04-06T09:05:56.999Z,63.08
2019-04-06T09:08:24.278Z,62.64
2019-04-06T09:10:51.602Z,63.38
2019-04-06T09:13:18.992Z,63.39
2019-04-06T09:15:46.244Z,60.59
2019-04-06T09:18:13.796Z,61.13
2019-04-06T09:20:41.129Z,61.17
2019-04-06T09:23:08.399Z,60.73
2019-04-06T09:25:35.664Z,61.00
2019-04-06T09:28:02.866Z,61.70
2019-04-06T09:30:30.196Z,63.44
2019-04-06T09:32:57.594Z,62.64
2019-04-06T09:35:24.859Z,61.59
2019-04-06T09:37:52.166Z,61.54
2019-04-06T09:40:19.476Z,61.44
2019-04-06T09:42:46.739Z,61.98
2019-04-06T09:45:38.329Z,61.59
2019-04-06T09:48:25.129Z,63.69
2019-04-06T09:51:10.799Z,60.10
2019-04-06T09:54:05.544Z,60.97
2019-04-06T09:56:34.956Z,60.47
2019-04-06T09:59:20.238Z,58.89
2019-04-06T10:02:05.910Z,58.40
2019-04-06T10:04:55.538Z,59.31
2019-04-06T10:07:51.284Z,60.74
2019-04-06T10:10:36.482Z,62.99
2019-04-06T10:13:23.333Z,60.77
2019-04-06T10:16:08.596Z,61.06
2019-04-06T10:18:58.237Z,63.12
2019-04-06T10:21:43.851Z,61.73
2019-04-06T10:24:29.638Z,60.15
2019-04-06T10:27:19.715Z,59.35
2019-04-06T10:30:18.708Z,60.74
2019-04-06T10:33:00.461Z,60.19
2019-04-06T10:35:53.502Z,59.90
2019-04-06T10:38:38.869Z,56.52
2019-04-06T10:41:18.410Z,59.20
2019-04-06T10:44:11.066Z,57.50
2019-04-06T10:46:55.428Z,58.78
2019-04-06T10:49:49.296Z,58.75
2019-04-06T10:52:45.075Z,58.62
2019-04-06T10:55:34.997Z,57.53
2019-04-06T10:58:31.010Z,57.46
2019-04-06T11:01:25.007Z,57.26
2019-04-06T11:04:15.007Z,59.19
2019-04-06T11:07:19.948Z,57.81
2019-04-06T11:10:05.661Z,55.14
2019-04-06T11:12:55.354Z,54.70
2019-04-06T11:15:54.019Z,54.31
2019-04-06T11:18:52.734Z,54.45
2019-04-06T11:21:45.738Z,55.83
2019-04-06T11:24:47.714Z,55.15
2019-04-06T11:27:46.420Z,54.90
2019-04-06T11:30:33.137Z,54.07
2019-04-06T11:33:28.997Z,55.40
2019-04-06T11:36:25.109Z,54.65
2019-04-06T11:39:10.335Z,55.75
2019-04-06T11:42:03.596Z,54.10
2019-04-06T11:44:48.965Z,53.74
2019-04-06T11:47:34.484Z,50.94
2019-04-06T11:50:21.471Z,53.26
2019-04-06T11:52:58.500Z,54.04
2019-04-06T11:55:38.379Z,52.14
2019-04-06T11:58:28.094Z,52.94
2019-04-06T12:01:26.937Z,52.55
2019-04-06T12:04:19.606Z,53.02
2019-04-06T12:07:00.793Z,50.53
2019-04-06T12:09:57.032Z,51.25
2019-04-06T12:12:46.246Z,49.23
2019-04-06T12:15:26.152Z,50.33
2019-04-06T12:18:03.783Z,51.02
2019-04-06T12:20:46.634Z,50.23
2019-04-06T12:23:42.704Z,49.42
2019-04-06T12:26:47.882Z,49.36
2019-04-06T12:29:52.823Z,48.26
2019-04-06T12:32:46.010Z,47.78
2019-04-06T12:35:32.893Z,48.71
2019-04-06T12:38:09.418Z,47.76
2019-04-06T12:40:58.814Z,48.42
2019-04-06T12:43:45.670Z,47.52
2019-04-06T12:46:38.436Z,47.64
2019-04-06T12:49:40.669Z,47.81
2019-04-06T12:52:33.723Z,47.15
2019-04-06T12:55:20.198Z,47.11
2019-04-06T12:58:07.026Z,48.61
2019-04-06T13:00:56.514Z,44.21
2019-04-06T13:03:50.129Z,47.83
2019-04-06T13:06:35.406Z,47.21
2019-04-06T13:09:18.811Z,49.35
2019-04-06T13:11:54.501Z,46.89
2019-04-06T13:14:31.607Z,48.81
2019-04-06T13:17:19.035Z,46.35
2019-04-06T13:20:10.540Z,47.06
2019-04-06T13:23:03.712Z,49.28
2019-04-06T13:25:47.927Z,48.01
2019-04-06T13:28:24.761Z,48.02
2019-04-06T13:31:10.245Z,48.80
2019-04-06T13:34:09.530Z,46.96
2019-04-06T13:36:55.546Z,44.96
2019-04-06T13:39:30.887Z,44.98
2019-04-06T13:42:16.419Z,45.27
2019-04-06T13:45:03.081Z,45.01
2019-04-06T13:47:49.934Z,45.83
2019-04-06T13:50:42.226Z,44.54
2019-04-06T13:53:34.867Z,44.96
2019-04-06T13:56:20.692Z,43.47
2019-04-06T13:59:02.979Z,43.80
2019-04-06T14:01:43.948Z,43.97
2019-04-06T14:04:39.044Z,43.20
2019-04-06T14:07:40.641Z,43.49
2019-04-06T14:10:16.651Z,43.04
2019-04-06T14:13:10.016Z,43.48
2019-04-06T14:15:56.954Z,42.44
2019-04-06T14:18:52.413Z,42.83
2019-04-06T14:21:54.183Z,43.40
2019-04-06T14:24:42.013Z,43.87
2019-04-06T14:27:38.085Z,45.43
2019-04-06T14:30:11.852Z,44.74
2019-04-06T14:33:07.823Z,43.53
2019-04-06T14:35:53.216Z,44.27
2019-04-06T14:38:43.140Z,45.62
2019-04-06T14:41:37.438Z,44.14
2019-04-06T14:44:26.959Z,43.87
2019-04-06T14:47:01.628Z,43.27
2019-04-06T14:49:52.165Z,44.09
2019-04-06T14:52:41.625Z,43.32
2019-04-06T14:55:24.463Z,44.87
2019-04-06T14:58:20.444Z,44.62
2019-04-06T15:01:07.551Z,42.51
2019-04-06T15:04:03.321Z,43.17
2019-04-06T15:06:53.614Z,43.49
2019-04-06T15:09:40.375Z,43.91
2019-04-06T15:12:26.713Z,43.60
2019-04-06T15:15:11.974Z,43.41
2019-04-06T15:17:55.318Z,43.89
2019-04-06T15:20:44.894Z,42.44
2019-04-06T15:23:49.780Z,42.97
2019-04-06T15:26:35.300Z,43.30
2019-04-06T15:29:20.880Z,42.46
2019-04-06T15:32:04.447Z,44.47
2019-04-06T15:34:52.827Z,43.71
2019-04-06T15:37:27.028Z,44.45
2019-04-06T15:40:19.558Z,42.63
2019-04-06T15:43:05.255Z,44.80
2019-04-06T15:45:55.426Z,45.61
2019-04-06T15:49:00.284Z,43.84
2019-04-06T15:52:09.660Z,42.42
2019-04-06T15:54:36.600Z,44.58
2019-04-06T15:57:13.150Z,37.72
2019-04-06T15:59:56.253Z,40.90
2019-04-06T16:02:55.028Z,44.62
2019-04-06T16:05:37.798Z,43.08
2019-04-06T16:08:24.131Z,37.49
2019-04-06T16:11:01.063Z,39.15
2019-04-06T16:13:48.710Z,39.00
2019-04-06T16:16:38.399Z,44.15
2019-04-06T16:19:14.271Z,43.71
2019-04-06T16:21:56.527Z,45.01
2019-04-06T16:24:31.711Z,44.75
2019-04-06T16:27:10.686Z,45.67
2019-04-06T16:29:53.740Z,45.28
2019-04-06T16:32:43.065Z,46.79
2019-04-06T16:35:31.494Z,47.97
2019-04-06T16:38:36.474Z,45.52
2019-04-06T16:41:22.626Z,46.03
2019-04-06T16:43:59.407Z,47.25
2019-04-06T16:47:04.995Z,47.66
2019-04-06T16:49:42.538Z,46.92
2019-04-06T16:52:35.681Z,49.75
2019-04-06T16:55:23.114Z,49.03
2019-04-06T16:58:14.637Z,49.30
2019-04-06T17:00:52.614Z,49.55
2019-04-06T17:03:38.422Z,49.46
2019-04-06T17:06:16.945Z,50.27
2019-04-06T17:09:13.097Z,49.43
2019-04-06T17:12:03.931Z,51.27
2019-04-06T17:14:51.748Z,52.02
2019-04-06T17:17:48.170Z,54.01
2019-04-06T17:20:34.083Z,51.92
2019-04-06T17:23:24.495Z,52.94
2019-04-06T17:26:13.823Z,54.70
2019-04-06T17:29:03.910Z,54.16
2019-04-06T17:31:56.929Z,53.18
2019-04-06T17:35:02.902Z,53.63
2019-04-06T17:37:56.678Z,56.28
2019-04-06T17:40:43.455Z,53.19
2019-04-06T17:43:43.053Z,52.13
2019-04-06T17:46:48.605Z,53.97
2019-04-06T17:49:29.674Z,55.04
2019-04-06T17:52:19.769Z,54.65
2019-04-06T17:55:05.906Z,52.12
2019-04-06T17:57:56.511Z,54.84
2019-04-06T18:00:44.989Z,54.41
2019-04-06T18:03:34.262Z,53.79
2019-04-06T18:06:15.679Z,53.15
2019-04-06T18:12:13.811Z,54.24
2019-04-06T18:14:42.892Z,53.46
2019-04-06T18:17:11.594Z,53.37
2019-04-06T18:19:39.362Z,54.39
2019-04-06T18:22:08.944Z,54.52
2019-04-06T18:24:43.408Z,54.71
2019-04-06T18:27:12.857Z,54.26
2019-04-06T18:29:41.938Z,54.82
2019-04-06T18:32:41.362Z,53.85
2019-04-06T18:35:12.336Z,54.21
2019-04-06T18:38:11.585Z,54.04
2019-04-06T18:40:39.349Z,55.06
2019-04-06T18:43:10.690Z,55.67
2019-04-06T18:45:38.831Z,54.68
2019-04-06T18:48:10.022Z,54.71
2019-04-06T18:50:40.777Z,55.51
2019-04-06T18:53:09.779Z,55.25
2019-04-06T18:55:37.826Z,55.44
2019-04-06T18:58:13.071Z,55.06
2019-04-06T19:00:41.309Z,54.08
2019-04-06T19:03:14.228Z,54.09
2019-04-06T19:05:39.786Z,55.82
2019-04-06T19:08:09.874Z,55.25
2019-04-06T19:10:40.511Z,55.85
2019-04-06T19:13:08.964Z,56.10
2019-04-06T19:15:38.848Z,55.89
2019-04-06T19:18:06.632Z,55.15
2019-04-06T19:20:36.111Z,55.88
2019-04-06T19:23:06.308Z,55.08
2019-04-06T19:25:35.425Z,54.86
2019-04-06T19:28:07.699Z,55.98
2019-04-06T19:30:35.554Z,56.99
2019-04-06T19:33:04.975Z,56.46
2019-04-06T19:35:33.132Z,55.09
2019-04-06T19:38:01.072Z,55.81
2019-04-06T19:40:29.271Z,56.27
2019-04-06T19:42:57.573Z,56.99
2019-04-06T19:45:25.914Z,56.84
2019-04-06T19:47:54.034Z,56.15
2019-04-06T19:50:22.217Z,56.00
2019-04-06T19:52:50.520Z,56.22
2019-04-06T19:55:19.185Z,57.21
2019-04-06T19:57:47.101Z,58.39
2019-04-06T20:00:15.934Z,57.21
2019-04-06T20:02:43.614Z,55.92
2019-04-06T20:05:11.785Z,55.83
2019-04-06T20:07:39.926Z,56.92
2019-04-06T20:10:08.385Z,56.85
2019-04-06T20:12:38.931Z,59.46
2019-04-06T20:15:08.723Z,58.71
2019-04-06T20:17:36.715Z,59.72
2019-04-06T20:20:05.397Z,59.50
2019-04-06T20:22:34.259Z,58.95
2019-04-06T20:25:02.152Z,57.64
2019-04-06T20:27:30.573Z,58.13
2019-04-06T20:30:01.077Z,58.91
2019-04-06T20:32:29.008Z,57.61
2019-04-06T20:34:58.809Z,58.99
2019-04-06T20:37:26.411Z,59.84
2019-04-06T20:39:54.287Z,60.07
2019-04-06T20:42:21.961Z,58.76
2019-04-06T20:44:49.556Z,59.38
2019-04-06T20:47:17.715Z,58.41
2019-04-06T20:49:46.292Z,57.35
2019-04-06T20:52:13.894Z,57.53
2019-04-06T20:54:41.695Z,57.60
2019-04-06T20:57:09.732Z,59.22
2019-04-06T20:59:39.410Z,58.68
2019-04-06T21:02:07.181Z,60.60
2019-04-06T21:04:37.316Z,61.25
2019-04-06T21:07:07.815Z,59.07
2019-04-06T21:09:36.054Z,58.97
2019-04-06T21:12:04.647Z,58.83
2019-04-06T21:14:32.754Z,58.84
2019-04-06T21:17:00.367Z,58.91
2019-04-06T21:19:28.052Z,60.51
2019-04-06T21:21:58.665Z,59.30
2019-04-06T21:24:25.995Z,59.66
2019-04-06T21:26:54.374Z,60.86
2019-04-06T21:29:21.879Z,60.94
2019-04-06T21:31:49.769Z,61.37
2019-04-06T21:34:17.279Z,60.50
2019-04-06T21:36:44.591Z,60.89
2019-04-06T21:39:12.090Z,61.29
2019-04-06T21:41:39.654Z,61.70
2019-04-06T21:44:07.491Z,60.62
2019-04-06T21:46:34.938Z,62.59
2019-04-06T21:49:02.543Z,61.47
2019-04-06T21:51:29.867Z,60.53
2019-04-06T21:53:57.582Z,64.00
2019-04-06T21:56:25.293Z,61.95
2019-04-06T21:58:52.631Z,61.70
2019-04-06T22:01:19.978Z,61.15
2019-04-06T22:03:47.437Z,62.10
2019-04-06T22:06:14.922Z,60.96
2019-04-06T22:08:43.210Z,62.63
2019-04-06T22:11:10.770Z,62.87
2019-04-06T22:13:38.227Z,62.70
2019-04-06T22:16:05.578Z,61.63
2019-04-06T22:18:32.898Z,61.98
2019-04-06T22:21:02.470Z,62.63
2019-04-06T22:23:40.384Z,62.70
2019-04-06T22:25:58.945Z,64.49
2019-04-06T22:28:26.710Z,63.17
2019-04-06T22:30:54.193Z,61.92
2019-04-06T22:33:21.729Z,61.89
2019-04-06T22:35:49.718Z,62.17
2019-04-06T22:38:17.142Z,62.98
2019-04-06T22:40:45.172Z,62.05
2019-04-06T22:43:12.408Z,61.94
2019-04-06T22:45:40.015Z,62.66
2019-04-06T22:48:07.287Z,62.38
2019-04-06T22:50:34.821Z,61.76
2019-04-06T22:53:02.658Z,62.03
2019-04-06T22:55:30.019Z,62.06
2019-04-06T22:57:57.260Z,62.76
2019-04-06T23:00:29.380Z,61.56
2019-04-06T23:03:35.511Z,61.33
2019-04-06T23:06:09.603Z,62.04
2019-04-06T23:08:37.065Z,64.52
2019-04-06T23:11:04.794Z,63.58
2019-04-06T23:13:32.414Z,63.32
2019-04-06T23:15:59.609Z,62.51
2019-04-06T23:18:27.482Z,62.35
2019-04-06T23:20:54.838Z,64.75
2019-04-06T23:23:22.082Z,62.69
2019-04-06T23:25:49.443Z,62.10
2019-04-06T23:28:16.778Z,63.59
2019-04-06T23:30:44.140Z,64.07
2019-04-06T23:33:12.056Z,66.06
2019-04-06T23:35:39.723Z,64.78
2019-04-06T23:38:07.493Z,63.40
2019-04-06T23:40:35.142Z,63.67
2019-04-06T23:43:02.858Z,63.48
2019-04-06T23:45:30.196Z,65.37
2019-04-06T23:47:57.497Z,65.86
2019-04-06T23:50:24.757Z,65.52
2019-04-06T23:52:52.066Z,65.59
2019-04-06T23:55:19.336Z,64.68
2019-04-06T23:57:46.600Z,65.28
